Time;durP1;ratioP1;P1;durP2;ratioP2;P2;SDS_P1;SDS_P2;PMS_P1;PMS_P2;Temp;Humidity;BMP_temperature;BMP_pressure;BME280_temperature;BME280_humidity;BME280_pressure;Samples;Min_cycle;Max_cycle;Signal;HPM_P1;HPM_P2
2020/12/18 00:01:18;;;;;;;15.20;3.83;;;23.20;51.30;;;;;;6364007;22;20038;-73
2020/12/18 00:03:45;;;;;;;11.38;2.97;;;23.20;51.50;;;;;;6363774;22;20311;-72
2020/12/18 00:06:11;;;;;;;18.20;3.60;;;23.20;51.80;;;;;;6363408;22;20077;-73
2020/12/18 00:08:39;;;;;;;5.78;2.25;;;23.20;51.80;;;;;;6364225;22;20006;-72
2020/12/18 00:11:06;;;;;;;10.40;2.85;;;23.20;51.90;;;;;;6362363;22;20067;-72
2020/12/18 00:13:32;;;;;;;6.57;2.50;;;23.20;51.90;;;;;;6364389;22;20028;-74
2020/12/18 00:15:59;;;;;;;7.50;3.40;;;23.20;51.80;;;;;;6363115;22;20009;-74
2020/12/18 00:18:25;;;;;;;10.45;4.05;;;23.20;51.80;;;;;;6363991;22;20484;-71
2020/12/18 00:20:52;;;;;;;10.90;4.05;;;23.20;51.80;;;;;;6365564;22;20003;-73
2020/12/18 00:23:18;;;;;;;9.82;3.75;;;23.20;51.80;;;;;;6365637;22;20047;-72
2020/12/18 00:25:49;;;;;;;6.15;2.05;;;23.10;51.90;;;;;;6366595;22;20069;-73
2020/12/18 00:28:17;;;;;;;5.68;2.50;;;23.10;52.00;;;;;;6364602;22;20081;-73
2020/12/18 00:30:44;;;;;;;7.28;2.00;;;23.10;52.20;;;;;;6366027;22;20010;-73
2020/12/18 00:33:10;;;;;;;5.72;2.17;;;23.10;52.50;;;;;;6365441;22;20002;-72
2020/12/18 00:35:37;;;;;;;10.52;2.47;;;23.10;52.90;;;;;;6366662;22;20003;-72
2020/12/18 00:38:03;;;;;;;4.78;2.25;;;23.00;53.20;;;;;;6365253;22;20081;-72
2020/12/18 00:40:30;;;;;;;7.88;1.90;;;23.10;53.50;;;;;;6365419;22;20061;-72
2020/12/18 00:42:57;;;;;;;7.05;1.90;;;23.10;53.70;;;;;;6366143;22;20006;-72
2020/12/18 00:45:24;;;;;;;10.20;2.30;;;23.00;53.80;;;;;;6364789;22;20410;-73
2020/12/18 00:47:50;;;;;;;5.50;2.40;;;23.10;53.90;;;;;;6366599;22;20010;-73
2020/12/18 00:50:17;;;;;;;5.18;2.50;;;23.00;53.80;;;;;;6364340;22;20103;-73
2020/12/18 00:52:43;;;;;;;9.05;3.30;;;23.00;53.70;;;;;;6365809;22;20090;-73
2020/12/18 00:55:10;;;;;;;11.00;3.80;;;23.00;53.70;;;;;;6365263;22;20013;-73
2020/12/18 00:57:37;;;;;;;11.63;4.07;;;23.00;53.60;;;;;;6366136;22;20009;-72
2020/12/18 01:00:06;;;;;;;6.30;3.33;;;23.00;53.60;;;;;;6366171;22;20451;-73
2020/12/18 01:02:33;;;;;;;7.70;2.78;;;23.00;53.70;;;;;;6365475;22;20018;-73
2020/12/18 01:04:59;;;;;;;10.00;2.78;;;23.00;53.70;;;;;;6366193;22;20003;-73
2020/12/18 01:07:26;;;;;;;10.27;3.03;;;23.00;53.90;;;;;;6364682;22;20035;-73
2020/12/18 01:09:52;;;;;;;11.75;2.42;;;23.00;53.90;;;;;;6365719;22;20006;-73
2020/12/18 01:12:19;;;;;;;12.02;2.67;;;22.90;54.00;;;;;;6364808;22;20029;-73
2020/12/18 01:14:45;;;;;;;10.43;2.00;;;22.90;54.10;;;;;;6365551;22;20030;-73
2020/12/18 01:17:13;;;;;;;7.57;1.95;;;22.90;54.10;;;;;;6365254;22;20639;-73
2020/12/18 01:19:40;;;;;;;4.72;1.40;;;22.90;54.10;;;;;;6365156;22;20509;-73
2020/12/18 01:22:06;;;;;;;12.80;6.68;;;22.90;54.10;;;;;;6365610;22;19998;-73
2020/12/18 01:24:33;;;;;;;19.98;8.20;;;22.90;54.10;;;;;;6363674;22;20002;-72
2020/12/18 01:26:59;;;;;;;12.52;6.13;;;22.90;54.10;;;;;;6365551;22;20470;-73
2020/12/18 01:29:26;;;;;;;13.52;6.57;;;22.90;54.10;;;;;;6364552;22;20025;-73
2020/12/18 01:31:53;;;;;;;15.93;5.55;;;22.90;54.10;;;;;;6365154;22;20021;-72
2020/12/18 01:34:19;;;;;;;12.82;4.10;;;22.90;54.10;;;;;;6364393;22;20445;-72
2020/12/18 01:36:46;;;;;;;8.45;4.07;;;22.80;54.00;;;;;;6364630;22;20013;-73
2020/12/18 01:39:12;;;;;;;6.97;2.97;;;22.80;54.00;;;;;;6365251;22;20010;-73
2020/12/18 01:41:39;;;;;;;11.75;3.45;;;22.80;54.00;;;;;;6364091;22;20337;-73
2020/12/18 01:44:05;;;;;;;8.30;3.20;;;22.80;54.10;;;;;;6365804;22;20010;-72
2020/12/18 01:46:33;;;;;;;6.63;2.33;;;22.80;54.20;;;;;;6364433;22;20037;-73
2020/12/18 01:49:00;;;;;;;6.53;2.92;;;22.80;54.30;;;;;;6366008;22;20073;-73
2020/12/18 01:51:27;;;;;;;9.68;3.45;;;22.80;54.40;;;;;;6364283;22;20022;-73
2020/12/18 01:53:55;;;;;;;11.60;4.22;;;22.80;54.50;;;;;;6365799;22;20319;-73
2020/12/18 01:57:01;;;;;;;9.70;4.55;;;22.70;54.50;;;;;;6360808;22;20701;-73
2020/12/18 01:59:28;;;;;;;12.98;3.35;;;22.70;54.50;;;;;;6363501;22;20005;-73
2020/12/18 02:01:54;;;;;;;9.45;2.80;;;22.70;54.60;;;;;;6364293;22;20013;-74
2020/12/18 02:04:21;;;;;;;13.57;4.72;;;22.70;54.50;;;;;;6363538;22;19998;-73
2020/12/18 02:06:53;;;;;;;9.00;3.67;;;22.70;54.40;;;;;;6365274;22;20729;-73
2020/12/18 02:09:20;;;;;;;17.98;7.22;;;22.70;54.50;;;;;;6364571;22;20009;-73
2020/12/18 02:11:47;;;;;;;16.52;7.22;;;22.70;54.60;;;;;;6363565;22;20718;-73
2020/12/18 02:14:13;;;;;;;18.98;8.88;;;22.70;54.70;;;;;;6365041;22;20034;-73
2020/12/18 02:16:40;;;;;;;17.75;7.50;;;22.70;54.70;;;;;;6363690;22;20075;-73
2020/12/18 02:19:10;;;;;;;16.45;7.30;;;22.60;54.60;;;;;;6365141;22;19998;-73
2020/12/18 02:21:37;;;;;;;21.73;7.90;;;22.60;54.60;;;;;;6363685;22;20010;-73
2020/12/18 02:24:04;;;;;;;14.05;6.20;;;22.60;54.60;;;;;;6364862;22;19998;-73
2020/12/18 02:26:30;;;;;;;14.65;5.63;;;22.60;54.60;;;;;;6364950;22;20006;-73
2020/12/18 02:28:57;;;;;;;14.43;6.38;;;22.60;54.50;;;;;;6364560;22;20444;-73
2020/12/18 02:31:23;;;;;;;18.15;8.65;;;22.60;54.60;;;;;;6337547;22;20010;-73
2020/12/18 02:33:50;;;;;;;13.32;5.97;;;22.60;54.70;;;;;;6363113;22;20062;-73
2020/12/18 02:36:25;;;;;;;12.90;4.57;;;22.60;54.70;;;;;;6364916;22;20003;-73
2020/12/18 02:38:56;;;;;;;10.48;4.00;;;22.50;54.70;;;;;;6363136;22;20006;-73
2020/12/18 02:41:23;;;;;;;7.97;3.28;;;22.50;54.80;;;;;;6364460;22;20003;-73
2020/12/18 02:43:49;;;;;;;8.45;2.88;;;22.50;55.00;;;;;;6365134;22;20462;-72
2020/12/18 02:46:18;;;;;;;9.40;2.60;;;22.50;55.10;;;;;;6363782;22;20006;-73
2020/12/18 02:48:45;;;;;;;7.65;2.95;;;22.50;55.10;;;;;;6364988;22;19994;-73
2020/12/18 02:51:12;;;;;;;8.77;2.78;;;22.50;55.10;;;;;;6362996;22;20014;-73
2020/12/18 02:53:38;;;;;;;7.07;1.80;;;22.50;55.00;;;;;;6364860;22;20006;-73
2020/12/18 02:56:05;;;;;;;10.85;2.90;;;22.50;54.80;;;;;;6363073;22;20033;-72
2020/12/18 02:58:31;;;;;;;10.95;2.38;;;22.40;54.60;;;;;;6365094;22;19995;-73
2020/12/18 03:00:58;;;;;;;10.82;3.47;;;22.50;54.60;;;;;;6364112;22;20494;-73
2020/12/18 03:03:24;;;;;;;7.93;2.95;;;22.40;54.70;;;;;;6363786;22;19994;-73
2020/12/18 03:05:51;;;;;;;13.40;3.85;;;22.40;54.80;;;;;;6364397;22;20002;-73
2020/12/18 03:08:17;;;;;;;12.05;4.00;;;22.40;55.00;;;;;;6363740;22;20013;-73
2020/12/18 03:10:44;;;;;;;8.10;3.22;;;22.40;55.00;;;;;;6364673;22;20018;-73
2020/12/18 03:13:10;;;;;;;8.60;3.35;;;22.40;55.00;;;;;;6363397;22;20006;-72
2020/12/18 03:15:36;;;;;;;5.03;2.58;;;22.40;55.00;;;;;;6364657;22;20009;-72
2020/12/18 03:18:03;;;;;;;7.70;2.78;;;22.40;55.10;;;;;;6364025;22;20010;-73
2020/12/18 03:20:29;;;;;;;14.82;4.63;;;22.40;55.10;;;;;;6364440;22;20329;-73
2020/12/18 03:22:56;;;;;;;10.20;4.22;;;22.40;55.20;;;;;;6364224;22;20006;-72
2020/12/18 03:25:22;;;;;;;9.18;5.07;;;22.40;55.40;;;;;;6362936;22;19999;-73
2020/12/18 03:27:49;;;;;;;10.93;5.70;;;22.40;55.50;;;;;;6364562;22;20006;-73
2020/12/18 03:30:15;;;;;;;8.25;2.63;;;22.40;55.60;;;;;;6362530;22;20010;-73
2020/12/18 03:32:42;;;;;;;6.30;3.25;;;22.30;55.80;;;;;;6364226;22;20006;-73
2020/12/18 03:35:08;;;;;;;8.27;2.00;;;22.30;56.00;;;;;;6362911;22;20005;-73
2020/12/18 03:37:35;;;;;;;8.13;2.72;;;22.30;56.20;;;;;;6364125;22;20007;-73
2020/12/18 03:40:01;;;;;;;8.13;2.90;;;22.30;56.10;;;;;;6364175;22;20085;-73
2020/12/18 03:42:28;;;;;;;14.13;3.60;;;22.30;56.00;;;;;;6363674;22;20452;-73
2020/12/18 03:44:54;;;;;;;8.60;2.63;;;22.30;55.90;;;;;;6364010;22;20007;-73
2020/12/18 03:47:21;;;;;;;10.32;3.45;;;22.30;56.00;;;;;;6362885;22;19998;-73
2020/12/18 03:49:47;;;;;;;15.65;5.18;;;22.30;56.00;;;;;;6364107;22;20414;-73
2020/12/18 03:52:14;;;;;;;10.13;3.75;;;22.30;56.10;;;;;;6362542;22;20094;-73
2020/12/18 03:54:40;;;;;;;13.80;3.95;;;22.30;56.10;;;;;;6363925;22;20040;-73
2020/12/18 03:57:07;;;;;;;10.75;3.47;;;22.30;56.20;;;;;;6363934;22;20406;-73
2020/12/18 03:59:33;;;;;;;12.32;3.97;;;22.30;56.20;;;;;;6363595;22;20048;-73
2020/12/18 04:02:00;;;;;;;13.15;4.30;;;22.20;56.20;;;;;;6363520;22;20002;-74
2020/12/18 04:04:27;;;;;;;17.38;9.10;;;22.20;56.30;;;;;;6362907;22;20010;-72
2020/12/18 04:06:54;;;;;;;20.08;6.13;;;22.20;56.40;;;;;;6364071;22;20006;-73
2020/12/18 04:09:22;;;;;;;19.23;6.38;;;22.20;56.50;;;;;;6362901;22;20002;-73
2020/12/18 04:11:49;;;;;;;15.38;5.80;;;22.20;56.60;;;;;;6364164;22;20095;-75
2020/12/18 04:14:15;;;;;;;14.65;4.25;;;22.20;56.70;;;;;;6362989;22;19998;-73
2020/12/18 04:16:42;;;;;;;11.25;4.25;;;22.20;56.90;;;;;;6362684;22;20006;-74
2020/12/18 04:19:10;;;;;;;13.43;3.63;;;22.20;57.00;;;;;;6364117;22;19999;-74
2020/12/18 04:21:36;;;;;;;12.55;3.58;;;22.20;57.20;;;;;;6362854;22;20356;-73
2020/12/18 04:24:03;;;;;;;14.20;4.07;;;22.20;57.30;;;;;;6364040;22;20026;-73
2020/12/18 04:26:30;;;;;;;9.73;3.40;;;22.20;57.40;;;;;;6362546;22;20006;-74
2020/12/18 04:28:56;;;;;;;15.55;5.75;;;22.20;57.50;;;;;;6363129;22;20037;-73
2020/12/18 04:31:22;;;;;;;21.58;7.57;;;22.20;57.80;;;;;;6361477;22;20025;-75
2020/12/18 04:33:49;;;;;;;37.30;14.80;;;22.20;57.90;;;;;;6364521;22;20302;-74
2020/12/18 04:36:16;;;;;;;41.20;12.35;;;22.20;58.00;;;;;;6363833;22;20014;-72
2020/12/18 04:38:43;;;;;;;28.90;10.00;;;22.20;57.90;;;;;;6363588;22;19994;-73
2020/12/18 04:41:09;;;;;;;21.80;9.43;;;22.20;57.80;;;;;;6364252;22;20026;-73
2020/12/18 04:43:36;;;;;;;19.27;9.63;;;22.20;57.60;;;;;;6362662;22;20026;-74
2020/12/18 04:46:05;;;;;;;20.55;8.65;;;22.20;57.40;;;;;;6363763;22;20017;-74
2020/12/18 04:48:34;;;;;;;21.92;6.95;;;22.20;57.40;;;;;;6362679;22;20595;-73
2020/12/18 04:51:02;;;;;;;14.52;5.72;;;22.20;57.40;;;;;;6363291;22;20018;-73
2020/12/18 04:53:32;;;;;;;16.02;4.50;;;22.20;57.50;;;;;;6363405;22;20011;-73
2020/12/18 04:56:08;;;;;;;12.35;6.13;;;22.20;57.50;;;;;;6362849;22;20017;-73
2020/12/18 04:58:39;;;;;;;13.77;5.25;;;22.20;57.60;;;;;;6364133;22;20010;-73
2020/12/18 05:01:08;;;;;;;16.08;5.40;;;22.30;57.60;;;;;;6362162;22;20356;-72
2020/12/18 05:03:35;;;;;;;15.25;5.55;;;22.30;57.70;;;;;;6364126;22;20029;-73
2020/12/18 05:06:06;;;;;;;14.98;4.78;;;22.30;57.70;;;;;;6363290;22;20003;-72
2020/12/18 05:08:32;;;;;;;9.82;3.78;;;22.30;57.90;;;;;;6365851;22;20365;-73
2020/12/18 05:10:59;;;;;;;15.93;5.55;;;22.30;58.00;;;;;;6365507;22;20445;-73
2020/12/18 05:14:05;;;;;;;13.55;4.38;;;22.30;58.00;;;;;;6359781;22;20013;-72
2020/12/18 05:17:11;;;;;;;11.05;3.70;;;22.40;58.10;;;;;;6364752;22;20393;-72
2020/12/18 05:19:42;;;;;;;13.90;3.75;;;22.30;58.10;;;;;;6364751;22;20059;-74
2020/12/18 05:22:13;;;;;;;10.75;3.30;;;22.40;58.20;;;;;;6363899;22;20006;-75
2020/12/18 05:24:41;;;;;;;12.38;3.60;;;22.40;58.20;;;;;;6364963;22;20034;-75
2020/12/18 05:27:08;;;;;;;7.18;3.45;;;22.40;58.40;;;;;;6364049;22;20038;-80
2020/12/18 05:29:38;;;;;;;10.40;4.25;;;22.40;58.40;;;;;;6366826;22;20040;-79
2020/12/18 05:32:44;;;;;;;17.05;8.57;;;22.50;58.50;;;;;;6363162;22;20851;-79
2020/12/18 05:35:50;;;;;;;13.18;8.48;;;22.50;58.60;;;;;;6360577;22;20002;-79
2020/12/18 05:38:56;;;;;;;17.45;5.90;;;22.50;58.40;;;;;;6336203;22;19998;-74
2020/12/18 05:42:03;;;;;;;10.55;6.07;;;22.50;58.30;;;;;;6336272;22;20013;-81
2020/12/18 05:45:09;;;;;;;10.52;4.47;;;22.60;58.30;;;;;;6363761;22;20073;-82
2020/12/18 05:48:15;;;;;;;10.45;5.18;;;22.60;58.20;;;;;;6362445;22;20429;-79
2020/12/18 05:50:42;;;;;;;10.55;4.72;;;22.70;58.20;;;;;;6364764;22;20014;-80
2020/12/18 05:53:11;;;;;;;12.55;4.65;;;22.70;58.20;;;;;;6364292;22;20506;-81
2020/12/18 05:55:41;;;;;;;21.92;4.72;;;22.70;58.10;;;;;;6365604;22;21007;-78
2020/12/18 05:58:14;;;;;;;8.77;3.47;;;22.80;58.20;;;;;;6364477;22;20026;-77
2020/12/18 06:00:42;;;;;;;14.70;3.05;;;22.80;58.10;;;;;;6364735;22;20003;-78
2020/12/18 06:03:11;;;;;;;10.30;3.90;;;22.90;58.10;;;;;;6365092;22;20326;-80
2020/12/18 06:05:39;;;;;;;9.63;3.20;;;22.90;58.10;;;;;;6363594;22;20029;-79
2020/12/18 06:08:19;;;;;;;8.23;3.13;;;22.90;58.00;;;;;;6365220;22;20005;-75
2020/12/18 06:10:46;;;;;;;10.77;3.00;;;22.90;57.90;;;;;;6363880;22;20018;-75
2020/12/18 06:13:18;;;;;;;13.52;5.45;;;23.00;57.90;;;;;;6365586;22;20902;-77
2020/12/18 06:15:48;;;;;;;13.18;6.30;;;23.00;57.80;;;;;;6364282;22;20045;-75
2020/12/18 06:18:17;;;;;;;7.45;4.78;;;23.10;57.70;;;;;;6364007;22;20314;-74
2020/12/18 06:20:44;;;;;;;10.82;5.35;;;23.10;57.60;;;;;;6365067;22;20002;-76
2020/12/18 06:23:15;;;;;;;9.45;5.10;;;23.20;57.60;;;;;;6363562;22;20008;-78
2020/12/18 06:25:43;;;;;;;11.38;4.50;;;23.20;57.40;;;;;;6364121;22;20002;-78
2020/12/18 06:28:27;;;;;;;10.43;4.80;;;23.20;57.30;;;;;;6362024;22;20496;-76
2020/12/18 06:31:26;;;;;;;11.23;4.88;;;23.30;57.30;;;;;;6364320;22;20442;-75
2020/12/18 06:33:59;;;;;;;7.57;4.05;;;23.30;57.20;;;;;;6365703;22;20051;-75
2020/12/18 06:36:43;;;;;;;8.32;3.75;;;23.40;57.20;;;;;;6363284;22;20006;-74
2020/12/18 06:39:32;;;;;;;9.40;3.85;;;23.40;57.10;;;;;;6364676;22;19998;-74
2020/12/18 06:42:18;;;;;;;10.60;3.67;;;23.50;57.10;;;;;;6364489;22;20009;-74
2020/12/18 06:44:51;;;;;;;18.42;3.97;;;23.50;57.00;;;;;;6363928;22;20051;-74
2020/12/18 06:47:29;;;;;;;9.90;3.72;;;23.60;57.00;;;;;;6364568;22;20425;-75
2020/12/18 06:49:55;;;;;;;10.07;3.50;;;23.60;57.00;;;;;;6335607;22;20414;-73
2020/12/18 06:53:10;;;;;;;11.60;3.45;;;23.70;56.90;;;;;;6364166;22;20018;-74
2020/12/18 06:55:40;;;;;;;7.05;2.90;;;23.70;56.90;;;;;;6331073;22;20006;-74
2020/12/18 06:58:11;;;;;;;7.85;2.58;;;23.70;56.70;;;;;;6335409;22;20019;-74
2020/12/18 07:00:40;;;;;;;12.23;2.92;;;23.80;56.70;;;;;;6364498;22;20007;-72
2020/12/18 07:03:07;;;;;;;5.55;2.88;;;23.80;56.40;;;;;;6363754;22;20333;-73
2020/12/18 07:05:43;;;;;;;20.63;13.60;;;23.90;56.30;;;;;;6364277;22;20475;-71
2020/12/18 07:08:13;;;;;;;9.65;5.13;;;23.90;56.00;;;;;;6364387;22;20001;-71
2020/12/18 07:10:44;;;;;;;8.43;4.55;;;24.00;55.90;;;;;;6362996;22;20401;-72
2020/12/18 07:13:18;;;;;;;10.13;3.25;;;24.00;55.50;;;;;;6365077;22;20369;-72
2020/12/18 07:15:45;;;;;;;9.35;3.25;;;24.10;55.30;;;;;;6363364;22;20138;-72
2020/12/18 07:18:50;;;;;;;13.68;3.50;;;24.10;55.00;;;;;;6364282;22;20559;-72
2020/12/18 07:21:19;;;;;;;9.90;2.88;;;24.20;54.70;;;;;;6331398;22;20006;-72
2020/12/18 07:23:47;;;;;;;11.23;3.97;;;24.20;54.50;;;;;;6362950;22;20017;-72
2020/12/18 07:26:15;;;;;;;8.73;2.83;;;24.20;54.30;;;;;;6364556;22;19998;-73
2020/12/18 07:28:43;;;;;;;14.13;4.93;;;24.30;54.30;;;;;;6362061;22;20008;-73
2020/12/18 07:31:20;;;;;;;13.32;3.97;;;24.30;54.00;;;;;;6364278;22;20090;-74
2020/12/18 07:33:51;;;;;;;14.63;5.20;;;24.40;53.70;;;;;;6364137;22;20047;-73
2020/12/18 07:36:19;;;;;;;10.13;3.55;;;24.40;53.20;;;;;;6363513;22;20069;-74
2020/12/18 07:38:48;;;;;;;11.68;3.55;;;24.50;52.70;;;;;;6364331;22;20010;-74
2020/12/18 07:41:17;;;;;;;8.88;3.28;;;24.50;52.40;;;;;;6363388;22;20389;-73
2020/12/18 07:43:48;;;;;;;9.07;2.78;;;24.60;52.00;;;;;;6364619;22;20069;-74
2020/12/18 07:46:19;;;;;;;7.75;3.05;;;24.60;51.60;;;;;;6362688;22;20434;-75
2020/12/18 07:48:47;;;;;;;9.15;3.17;;;24.70;51.50;;;;;;6364214;22;20077;-75
2020/12/18 07:51:20;;;;;;;7.85;3.30;;;24.70;51.20;;;;;;6363566;22;20021;-73
2020/12/18 07:53:55;;;;;;;9.70;2.97;;;24.80;50.80;;;;;;6363191;22;20003;-74
2020/12/18 07:56:25;;;;;;;14.50;3.40;;;24.80;50.50;;;;;;6364286;22;20010;-73
2020/12/18 07:59:15;;;;;;;10.90;4.80;;;24.90;50.50;;;;;;6362803;22;20006;-72
2020/12/18 08:01:43;;;;;;;7.68;3.40;;;24.90;50.40;;;;;;6364089;22;19999;-73
2020/12/18 08:04:12;;;;;;;11.90;3.33;;;25.00;50.40;;;;;;6363908;22;20003;-74
2020/12/18 08:06:40;;;;;;;8.43;4.15;;;25.00;50.50;;;;;;6363581;22;20002;-76
2020/12/18 08:09:19;;;;;;;8.30;3.40;;;25.10;50.80;;;;;;6364709;22;20009;-73
2020/12/18 08:11:50;;;;;;;10.13;2.80;;;25.10;50.70;;;;;;6363415;22;20011;-73
2020/12/18 08:14:17;;;;;;;11.80;2.90;;;25.20;50.80;;;;;;6364324;22;20077;-73
2020/12/18 08:16:44;;;;;;;10.40;3.33;;;25.20;50.90;;;;;;6363259;22;20013;-74
2020/12/18 08:19:14;;;;;;;13.93;3.47;;;25.30;51.10;;;;;;6364038;22;20002;-74
2020/12/18 08:21:46;;;;;;;11.23;3.22;;;25.30;51.20;;;;;;6364276;22;20048;-74
2020/12/18 08:24:20;;;;;;;15.48;4.68;;;25.40;51.20;;;;;;6362952;22;20302;-74
2020/12/18 08:27:13;;;;;;;13.32;4.82;;;25.50;51.40;;;;;;6363464;22;20099;-74
2020/12/18 08:29:42;;;;;;;16.70;11.05;;;25.50;51.60;;;;;;6363734;22;20002;-73
2020/12/18 08:32:10;;;;;;;16.75;6.93;;;25.60;52.00;;;;;;6363678;22;20018;-74
2020/12/18 08:34:39;;;;;;;14.02;4.35;;;25.60;52.00;;;;;;6365070;22;20568;-76
2020/12/18 08:37:07;;;;;;;16.30;3.83;;;25.70;52.00;;;;;;6363086;22;19998;-75
2020/12/18 08:39:36;;;;;;;16.77;3.97;;;25.70;52.00;;;;;;6364313;22;20006;-74
2020/12/18 08:42:04;;;;;;;11.02;3.30;;;25.80;51.90;;;;;;6365087;22;19998;-75
2020/12/18 08:44:39;;;;;;;13.38;4.18;;;25.80;51.70;;;;;;6366241;22;19998;-74
2020/12/18 08:47:28;;;;;;;14.73;3.60;;;25.80;51.70;;;;;;6365268;22;20389;-75
2020/12/18 08:49:57;;;;;;;11.13;4.47;;;25.90;51.40;;;;;;6364877;22;20002;-75
2020/12/18 08:52:26;;;;;;;13.05;4.30;;;25.90;51.40;;;;;;6366094;22;20093;-75
2020/12/18 08:55:07;;;;;;;12.20;3.10;;;26.00;51.40;;;;;;6365748;22;20060;-75
2020/12/18 08:57:36;;;;;;;10.93;3.53;;;26.00;51.50;;;;;;6365519;22;20002;-76
2020/12/18 09:00:21;;;;;;;18.10;8.35;;;26.00;51.50;;;;;;6364937;22;20034;-75
2020/12/18 09:02:57;;;;;;;9.07;3.97;;;26.10;51.30;;;;;;6364848;22;20044;-75
2020/12/18 09:05:31;;;;;;;10.55;3.85;;;26.20;51.10;;;;;;6365575;22;20469;-75
2020/12/18 09:07:59;;;;;;;10.05;3.90;;;26.20;51.00;;;;;;6364389;22;20063;-74
2020/12/18 09:10:33;;;;;;;6.80;3.17;;;26.20;50.80;;;;;;6365791;22;20006;-77
2020/12/18 09:13:20;;;;;;;9.27;3.97;;;26.30;50.50;;;;;;6364850;22;20006;-75
2020/12/18 09:15:59;;;;;;;8.90;3.13;;;26.40;50.40;;;;;;6364593;22;20405;-74
2020/12/18 09:18:28;;;;;;;13.73;3.75;;;26.40;50.20;;;;;;6365707;22;20048;-73
2020/12/18 09:20:55;;;;;;;8.88;3.78;;;26.50;50.10;;;;;;6364505;22;20030;-75
2020/12/18 09:23:31;;;;;;;10.95;3.50;;;26.50;50.10;;;;;;6365177;22;20002;-76
2020/12/18 09:26:01;;;;;;;16.05;4.65;;;26.60;49.90;;;;;;6363447;22;20414;-75
2020/12/18 09:28:34;;;;;;;11.13;3.35;;;26.60;49.70;;;;;;6365538;22;20045;-75
2020/12/18 09:31:02;;;;;;;9.68;4.03;;;26.70;49.30;;;;;;6365734;22;20010;-74
2020/12/18 09:33:31;;;;;;;19.58;3.85;;;26.70;49.30;;;;;;6363989;22;20001;-74
2020/12/18 09:36:03;;;;;;;20.83;6.03;;;26.80;49.40;;;;;;6365192;22;20078;-74
2020/12/18 09:39:02;;;;;;;14.02;4.07;;;26.90;49.70;;;;;;6364497;22;20048;-74
2020/12/18 09:42:08;;;;;;;12.73;4.05;;;26.90;49.80;;;;;;6364338;22;20006;-74
2020/12/18 09:45:14;;;;;;;12.48;5.00;;;27.00;49.70;;;;;;6365615;22;20085;-75
2020/12/18 09:47:41;;;;;;;14.65;4.97;;;27.00;49.80;;;;;;6364592;22;20028;-75
2020/12/18 09:50:07;;;;;;;15.88;4.45;;;27.10;49.90;;;;;;6364205;22;20527;-75
2020/12/18 09:52:34;;;;;;;16.05;4.15;;;27.10;49.70;;;;;;6364818;22;20014;-75
2020/12/18 09:55:01;;;;;;;12.13;5.25;;;27.10;49.50;;;;;;6364137;22;20009;-76
2020/12/18 09:57:28;;;;;;;12.57;4.03;;;27.20;49.70;;;;;;6364755;22;19998;-76
2020/12/18 09:59:55;;;;;;;13.70;3.95;;;27.20;49.80;;;;;;6364006;22;19998;-76
2020/12/18 10:02:22;;;;;;;13.80;4.50;;;27.20;49.60;;;;;;6364889;22;20069;-75
2020/12/18 10:05:28;;;;;;;11.57;3.70;;;27.20;49.30;;;;;;6364694;22;19994;-75
2020/12/18 10:08:34;;;;;;;13.30;3.53;;;27.30;49.40;;;;;;6364300;22;20461;-75
2020/12/18 10:11:41;;;;;;;11.50;4.15;;;27.30;49.40;;;;;;6364554;22;20014;-75
2020/12/18 10:14:47;;;;;;;11.77;3.78;;;27.30;49.50;;;;;;6356924;22;20421;-75
2020/12/18 10:17:55;;;;;;;8.10;2.70;;;27.40;49.50;;;;;;6362632;22;20003;-76
2020/12/18 10:21:03;;;;;;;9.38;3.08;;;27.50;49.50;;;;;;6364469;22;20415;-75
2020/12/18 10:24:10;;;;;;;7.97;2.78;;;27.50;49.60;;;;;;6335493;22;20077;-76
2020/12/18 10:27:16;;;;;;;13.77;3.83;;;27.50;49.10;;;;;;6361896;22;20002;-74
2020/12/18 10:30:22;;;;;;;10.40;3.80;;;27.60;49.30;;;;;;6363889;22;20002;-74
2020/12/18 10:33:29;;;;;;;10.23;2.67;;;27.60;49.50;;;;;;6363885;22;20011;-75
2020/12/18 10:36:35;;;;;;;19.45;7.70;;;27.60;49.60;;;;;;6362941;22;19994;-74
2020/12/18 10:39:41;;;;;;;14.50;4.30;;;27.70;49.40;;;;;;6363225;22;19998;-75
2020/12/18 10:42:48;;;;;;;10.52;3.15;;;27.70;49.40;;;;;;6362610;22;20010;-76
2020/12/18 10:45:54;;;;;;;10.00;3.03;;;27.80;49.50;;;;;;6364406;22;20322;-75
2020/12/18 10:48:20;;;;;;;8.75;2.95;;;27.80;49.70;;;;;;6363243;22;20090;-74
2020/12/18 10:51:09;;;;;;;10.60;3.28;;;27.80;49.80;;;;;;6363519;22;20033;-75
2020/12/18 10:54:15;;;;;;;11.35;2.92;;;27.90;50.00;;;;;;6336686;22;19998;-74
2020/12/18 10:57:11;;;;;;;13.73;4.45;;;27.90;49.80;;;;;;6363033;22;20026;-75
2020/12/18 11:00:14;;;;;;;11.93;3.25;;;28.00;49.80;;;;;;6310693;22;20012;-75
2020/12/18 11:02:41;;;;;;;9.48;3.33;;;28.00;49.70;;;;;;6337031;22;20006;-75
2020/12/18 11:05:08;;;;;;;9.95;4.63;;;28.00;49.70;;;;;;6363257;22;20353;-75
2020/12/18 11:07:34;;;;;;;12.90;3.45;;;28.00;49.80;;;;;;6364432;22;20401;-76
2020/12/18 11:10:40;;;;;;;10.23;3.67;;;28.10;49.80;;;;;;6363476;22;20696;-75
2020/12/18 11:13:47;;;;;;;13.35;3.70;;;28.20;50.00;;;;;;6357900;22;20010;-75
2020/12/18 11:16:53;;;;;;;14.90;4.45;;;28.20;49.90;;;;;;6363095;22;20082;-75
2020/12/18 11:20:00;;;;;;;10.55;3.60;;;28.30;49.80;;;;;;6361291;22;19999;-74
2020/12/18 11:23:07;;;;;;;13.95;3.42;;;28.30;50.00;;;;;;6362276;22;19998;-74
2020/12/18 11:26:13;;;;;;;9.50;3.17;;;28.40;50.20;;;;;;6362050;22;19998;-75
2020/12/18 11:29:19;;;;;;;11.60;3.38;;;28.40;50.20;;;;;;6363992;22;20078;-74
2020/12/18 11:32:26;;;;;;;10.35;3.15;;;28.40;50.10;;;;;;6363135;22;20060;-75
2020/12/18 11:35:32;;;;;;;9.70;3.78;;;28.50;50.00;;;;;;6363263;22;20430;-75
2020/12/18 11:37:58;;;;;;;10.82;3.28;;;28.50;50.10;;;;;;6363768;22;20069;-75
2020/12/18 11:41:05;;;;;;;13.95;3.45;;;28.50;50.00;;;;;;6363031;22;19998;-75
2020/12/18 11:44:11;;;;;;;15.18;6.20;;;28.60;50.10;;;;;;6363310;22;20026;-74
2020/12/18 11:47:17;;;;;;;13.85;4.78;;;28.60;50.00;;;;;;6363644;22;20006;-75
2020/12/18 11:50:24;;;;;;;10.52;4.18;;;28.70;49.60;;;;;;6363837;22;20798;-75
2020/12/18 11:53:30;;;;;;;14.20;3.88;;;28.70;49.60;;;;;;6365800;22;20331;-74
2020/12/18 11:56:52;;;;;;;12.90;3.90;;;28.70;49.70;;;;;;6361669;22;20327;-75
2020/12/18 11:59:59;;;;;;;13.38;6.65;;;28.70;49.90;;;;;;6336921;22;20329;-74
2020/12/18 12:03:05;;;;;;;16.02;4.18;;;28.70;49.80;;;;;;6363729;22;20328;-75
2020/12/18 12:06:12;;;;;;;12.60;4.35;;;28.70;49.70;;;;;;6362187;22;19999;-76
2020/12/18 12:09:19;;;;;;;11.93;3.50;;;28.70;49.80;;;;;;6364255;22;19998;-76
2020/12/18 12:12:26;;;;;;;15.15;3.70;;;28.70;49.80;;;;;;6364134;22;20010;-76
2020/12/18 12:15:32;;;;;;;11.30;3.70;;;28.70;49.90;;;;;;6362339;22;20391;-75
2020/12/18 12:18:38;;;;;;;11.52;4.20;;;28.70;49.80;;;;;;6365637;22;20018;-75
2020/12/18 12:21:44;;;;;;;14.38;5.05;;;28.80;49.90;;;;;;6365879;22;20009;-74
2020/12/18 12:24:51;;;;;;;14.05;3.47;;;28.80;49.70;;;;;;6363777;22;20018;-75
2020/12/18 12:28:01;;;;;;;16.60;4.75;;;28.90;49.70;;;;;;6364105;22;20006;-75
2020/12/18 12:31:07;;;;;;;11.93;3.45;;;28.90;49.40;;;;;;6365772;22;20010;-74
2020/12/18 12:34:14;;;;;;;17.20;3.25;;;28.80;49.30;;;;;;6365853;22;20052;-77
2020/12/18 12:37:20;;;;;;;11.88;3.50;;;28.80;49.50;;;;;;6364961;22;20123;-75
2020/12/18 12:40:28;;;;;;;13.90;3.47;;;28.70;49.50;;;;;;6365445;22;20013;-78
2020/12/18 12:43:35;;;;;;;12.25;3.65;;;28.70;49.60;;;;;;6338093;22;20010;-77
2020/12/18 12:46:42;;;;;;;16.90;3.38;;;28.70;49.80;;;;;;6365165;22;20003;-78
2020/12/18 12:49:49;;;;;;;13.35;4.32;;;28.70;49.90;;;;;;6365270;22;20009;-76
2020/12/18 12:52:57;;;;;;;11.40;3.13;;;28.70;50.00;;;;;;6365062;22;20452;-76
2020/12/18 12:56:04;;;;;;;16.20;3.92;;;28.80;49.90;;;;;;6366339;22;20006;-76
2020/12/18 12:59:11;;;;;;;15.00;3.28;;;28.90;49.80;;;;;;6364763;22;20037;-75
2020/12/18 13:01:39;;;;;;;16.65;3.97;;;28.80;49.70;;;;;;6364868;22;20026;-76
2020/12/18 13:04:05;;;;;;;16.52;5.13;;;28.80;49.90;;;;;;6365442;22;20027;-76
2020/12/18 13:07:12;;;;;;;17.00;3.72;;;28.80;49.90;;;;;;6364606;22;20414;-77
2020/12/18 13:10:19;;;;;;;12.13;4.10;;;28.80;49.80;;;;;;6364601;22;19999;-75
2020/12/18 13:13:26;;;;;;;15.93;4.13;;;28.90;49.70;;;;;;6365437;22;20010;-73
2020/12/18 13:16:34;;;;;;;18.83;4.78;;;28.90;49.60;;;;;;6364020;22;20009;-77
2020/12/18 13:19:41;;;;;;;11.63;3.67;;;28.90;49.70;;;;;;6362208;22;20009;-75
2020/12/18 13:22:47;;;;;;;17.25;4.15;;;28.80;49.80;;;;;;6365836;22;20067;-76
2020/12/18 13:25:54;;;;;;;17.08;5.20;;;28.90;50.00;;;;;;6365453;22;20002;-75
2020/12/18 13:29:01;;;;;;;17.05;4.47;;;28.90;50.00;;;;;;6363522;22;20029;-75
2020/12/18 13:32:07;;;;;;;16.30;4.45;;;28.90;50.00;;;;;;6364715;22;20017;-76
2020/12/18 13:34:37;;;;;;;18.40;4.88;;;28.90;49.90;;;;;;6366019;22;20014;-76
2020/12/18 13:37:48;;;;;;;13.32;3.85;;;28.90;50.00;;;;;;6364074;22;20701;-76